createdAt,value
2018-08-18T00:01:57.421Z,7.17
2018-08-18T00:04:33.281Z,7.60
2018-08-18T00:07:02.338Z,6.20
2018-08-18T00:09:30.881Z,7.30
2018-08-18T00:11:59.263Z,6.97
2018-08-18T00:14:27.874Z,7.47
2018-08-18T00:16:56.565Z,6.83
2018-08-18T00:19:26.302Z,7.03
2018-08-18T00:21:54.678Z,7.17
2018-08-18T00:24:23.128Z,8.00
2018-08-18T00:26:51.489Z,7.93
2018-08-18T00:29:19.885Z,7.30
2018-08-18T00:31:48.253Z,7.50
2018-08-18T00:34:16.698Z,5.67
2018-08-18T00:36:45.063Z,7.30
2018-08-18T00:39:13.958Z,7.70
2018-08-18T00:41:42.363Z,6.70
2018-08-18T00:44:11.635Z,7.30
2018-08-18T00:46:39.997Z,7.60
2018-08-18T00:49:08.386Z,7.10
2018-08-18T00:51:40.941Z,7.33
2018-08-18T00:54:09.330Z,8.93
2018-08-18T00:56:39.819Z,6.60
2018-08-18T00:59:08.257Z,6.20
2018-08-18T01:01:36.634Z,6.80
2018-08-18T01:04:06.169Z,7.07
2018-08-18T01:06:35.618Z,7.40
2018-08-18T01:09:06.682Z,6.37
2018-08-18T01:11:36.101Z,6.23
2018-08-18T01:14:12.536Z,8.33
2018-08-18T01:16:51.883Z,7.10
2018-08-18T01:19:21.645Z,8.63
2018-08-18T01:21:54.238Z,8.90
2018-08-18T01:24:22.638Z,9.27
2018-08-18T01:26:51.010Z,7.87
2018-08-18T01:29:19.414Z,7.87
2018-08-18T01:31:48.295Z,8.53
2018-08-18T01:34:16.677Z,8.30
2018-08-18T01:36:45.054Z,9.00
2018-08-18T01:39:14.593Z,9.83
2018-08-18T01:41:43.148Z,7.90
2018-08-18T01:44:20.220Z,8.27
2018-08-18T01:46:50.034Z,9.03
2018-08-18T01:49:32.135Z,9.07
2018-08-18T01:52:02.726Z,8.00
2018-08-18T01:54:31.373Z,10.53
2018-08-18T01:57:05.275Z,9.83
2018-08-18T01:59:33.687Z,11.47
2018-08-18T02:02:02.075Z,10.13
2018-08-18T02:04:30.446Z,9.73
2018-08-18T02:07:23.785Z,10.40
2018-08-18T02:09:52.372Z,10.00
2018-08-18T02:12:20.787Z,11.70
2018-08-18T02:14:49.213Z,14.70
2018-08-18T02:17:27.414Z,13.97
2018-08-18T02:19:56.275Z,12.30
2018-08-18T02:22:25.410Z,13.93
2018-08-18T02:24:53.859Z,15.80
2018-08-18T02:27:22.250Z,16.00
2018-08-18T02:30:02.681Z,16.60
2018-08-18T02:32:33.476Z,15.07
2018-08-18T02:35:01.869Z,18.17
2018-08-18T02:37:30.879Z,13.47
2018-08-18T02:39:59.327Z,18.40
2018-08-18T02:42:27.727Z,16.57
2018-08-18T02:44:56.140Z,18.00
2018-08-18T02:47:24.791Z,17.03
2018-08-18T02:49:54.275Z,17.10
2018-08-18T02:52:29.146Z,15.30
2018-08-18T02:55:01.170Z,18.43
2018-08-18T02:57:31.625Z,18.60
2018-08-18T03:00:01.210Z,18.03
2018-08-18T03:02:29.638Z,17.63
2018-08-18T03:04:58.171Z,18.17
2018-08-18T03:07:30.123Z,18.40
2018-08-18T03:09:58.493Z,17.40
2018-08-18T03:12:31.054Z,15.60
2018-08-18T03:14:59.501Z,16.63
2018-08-18T03:17:27.934Z,16.33
2018-08-18T03:19:56.331Z,16.50
2018-08-18T03:22:28.895Z,14.93
2018-08-18T03:24:57.367Z,16.20
2018-08-18T03:27:25.771Z,14.87
2018-08-18T03:29:54.146Z,15.47
2018-08-18T03:32:22.681Z,15.10
2018-08-18T03:34:51.064Z,15.40
2018-08-18T03:37:30.859Z,13.13
2018-08-18T03:39:59.225Z,15.00
2018-08-18T03:42:35.862Z,12.50
2018-08-18T03:45:06.475Z,11.70
2018-08-18T03:47:34.887Z,14.50
2018-08-18T03:50:03.469Z,10.30
2018-08-18T03:52:31.879Z,12.43
2018-08-18T03:55:00.274Z,12.70
2018-08-18T03:57:45.557Z,13.70
2018-08-18T04:00:14.733Z,12.93
2018-08-18T04:02:43.141Z,9.83
2018-08-18T04:05:11.521Z,9.10
2018-08-18T04:07:45.276Z,11.63
2018-08-18T04:10:13.680Z,12.27
2018-08-18T04:12:42.091Z,11.37
2018-08-18T04:15:10.481Z,10.50
2018-08-18T04:17:39.087Z,10.60
2018-08-18T04:20:07.470Z,10.87
2018-08-18T04:22:35.874Z,10.27
2018-08-18T04:25:05.185Z,11.30
2018-08-18T04:27:39.432Z,9.17
2018-08-18T04:30:11.073Z,10.03
2018-08-18T04:32:50.863Z,9.37
2018-08-18T04:35:21.218Z,10.93
2018-08-18T04:37:50.238Z,9.07
2018-08-18T04:40:18.802Z,10.80
2018-08-18T04:42:47.229Z,11.70
2018-08-18T04:45:16.951Z,9.73
2018-08-18T04:47:45.347Z,9.77
2018-08-18T04:50:13.979Z,8.90
2018-08-18T04:52:42.637Z,9.90
2018-08-18T04:55:11.767Z,8.53
2018-08-18T04:57:40.331Z,10.63
2018-08-18T05:00:10.482Z,9.30
2018-08-18T05:02:44.644Z,9.97
2018-08-18T05:05:13.309Z,8.97
2018-08-18T05:07:46.970Z,9.63
2018-08-18T05:10:16.175Z,10.20
2018-08-18T05:12:44.727Z,9.77
2018-08-18T05:15:13.122Z,9.77
2018-08-18T05:17:41.563Z,10.53
2018-08-18T05:20:14.407Z,8.20
2018-08-18T05:22:42.962Z,7.90
2018-08-18T05:25:11.382Z,8.30
2018-08-18T05:27:39.757Z,8.30
2018-08-18T05:30:08.161Z,8.93
2018-08-18T05:32:37.503Z,8.63
2018-08-18T05:35:06.306Z,8.27
2018-08-18T05:37:34.681Z,8.70
2018-08-18T05:40:03.095Z,8.70
2018-08-18T05:42:31.470Z,8.73
2018-08-18T05:45:05.423Z,8.63
2018-08-18T05:47:33.866Z,8.67
2018-08-18T05:50:02.212Z,7.83
2018-08-18T05:52:30.589Z,8.07
2018-08-18T05:54:58.984Z,8.60
2018-08-18T05:57:27.364Z,8.90
2018-08-18T05:59:55.774Z,8.57
2018-08-18T06:02:24.150Z,10.63
2018-08-18T06:04:52.557Z,9.60
2018-08-18T06:07:21.042Z,9.47
2018-08-18T06:09:49.442Z,8.70
2018-08-18T06:12:19.587Z,8.30
2018-08-18T06:14:47.987Z,8.53
2018-08-18T06:17:21.670Z,8.23
2018-08-18T06:19:50.242Z,7.40
2018-08-18T06:22:18.605Z,7.03
2018-08-18T06:24:47.003Z,8.90
2018-08-18T06:27:18.447Z,7.57
2018-08-18T06:29:46.854Z,7.83
2018-08-18T06:32:15.233Z,8.07
2018-08-18T06:34:44.266Z,7.83
2018-08-18T06:37:12.643Z,7.30
2018-08-18T06:39:54.183Z,7.60
2018-08-18T06:42:30.969Z,6.80
2018-08-18T06:44:59.380Z,8.63
2018-08-18T06:47:27.770Z,8.43
2018-08-18T06:49:56.202Z,7.33
2018-08-18T06:52:24.581Z,8.00
2018-08-18T06:54:55.035Z,5.73
2018-08-18T06:57:34.728Z,8.33
2018-08-18T07:00:08.367Z,6.83
2018-08-18T07:02:36.834Z,6.83
2018-08-18T07:05:06.471Z,6.80
2018-08-18T07:07:34.864Z,5.77
2018-08-18T07:10:19.942Z,5.10
2018-08-18T07:12:51.618Z,4.47
2018-08-18T07:15:22.541Z,4.27
2018-08-18T07:17:51.655Z,3.50
2018-08-18T07:20:20.774Z,4.50
2018-08-18T07:22:49.430Z,3.40
2018-08-18T07:25:18.450Z,2.60
2018-08-18T07:27:46.834Z,2.27
2018-08-18T07:30:15.321Z,2.30
2018-08-18T07:32:43.694Z,2.30
2018-08-18T07:35:12.105Z,2.00
2018-08-18T07:37:40.474Z,1.80
2018-08-18T07:40:09.032Z,2.20
2018-08-18T07:42:37.448Z,2.03
2018-08-18T07:45:05.833Z,2.67
2018-08-18T07:47:34.995Z,2.37
2018-08-18T07:50:06.005Z,1.87
2018-08-18T07:52:35.029Z,1.57
2018-08-18T07:55:03.596Z,2.33
2018-08-18T07:57:31.997Z,2.10
2018-08-18T08:00:01.682Z,1.43
2018-08-18T08:02:30.706Z,2.40
2018-08-18T08:04:59.981Z,1.80
2018-08-18T08:07:28.607Z,2.10
2018-08-18T08:09:57.840Z,1.67
2018-08-18T08:12:26.674Z,1.80
2018-08-18T08:14:55.083Z,1.50
2018-08-18T08:17:23.501Z,1.03
2018-08-18T08:19:51.879Z,1.53
2018-08-18T08:22:20.281Z,1.60
2018-08-18T08:24:49.348Z,1.03
2018-08-18T08:27:18.036Z,1.50
2018-08-18T08:29:46.578Z,2.20
2018-08-18T08:32:14.984Z,1.50
2018-08-18T08:34:46.249Z,1.40
2018-08-18T08:37:16.000Z,1.80
2018-08-18T08:39:45.067Z,1.13
2018-08-18T08:42:13.462Z,1.27
2018-08-18T08:44:42.747Z,1.00
2018-08-18T08:47:14.280Z,1.20
2018-08-18T08:49:42.683Z,1.10
2018-08-18T08:52:11.111Z,1.10
2018-08-18T08:54:40.455Z,1.20
2018-08-18T08:57:10.605Z,0.80
2018-08-18T08:59:40.040Z,1.30
2018-08-18T09:02:10.977Z,0.80
2018-08-18T09:04:39.390Z,1.07
2018-08-18T09:07:10.295Z,1.20
2018-08-18T09:09:38.695Z,0.90
2018-08-18T09:12:07.538Z,1.50
2018-08-18T09:14:36.594Z,1.10
2018-08-18T09:17:05.015Z,0.90
2018-08-18T09:19:33.386Z,1.03
2018-08-18T09:22:02.688Z,1.47
2018-08-18T09:24:31.863Z,0.80
2018-08-18T09:27:02.518Z,1.07
2018-08-18T09:29:48.247Z,1.20
2018-08-18T09:32:17.814Z,1.10
2018-08-18T09:34:52.315Z,1.30
2018-08-18T09:37:21.175Z,1.00
2018-08-18T09:39:49.545Z,1.87
2018-08-18T09:42:19.219Z,1.40
2018-08-18T09:44:53.403Z,1.10
2018-08-18T09:47:21.790Z,0.83
2018-08-18T09:49:50.163Z,1.37
2018-08-18T09:52:19.999Z,0.97
2018-08-18T09:54:48.399Z,0.70
2018-08-18T09:57:16.823Z,1.57
2018-08-18T09:59:45.191Z,1.17
2018-08-18T10:02:14.251Z,1.07
2018-08-18T10:04:42.626Z,1.40
2018-08-18T10:07:11.075Z,1.43
2018-08-18T10:09:39.441Z,1.73
2018-08-18T10:12:07.834Z,1.40
2018-08-18T10:14:36.204Z,1.10
2018-08-18T10:17:04.663Z,0.90
2018-08-18T10:19:33.680Z,1.07
2018-08-18T10:22:02.663Z,1.00
2018-08-18T10:24:31.046Z,1.00
2018-08-18T10:27:04.616Z,1.00
2018-08-18T10:29:33.017Z,1.27
2018-08-18T10:32:01.426Z,0.90
2018-08-18T10:34:31.149Z,0.97
2018-08-18T10:37:06.787Z,0.90
2018-08-18T10:39:35.997Z,1.27
2018-08-18T10:42:09.326Z,0.60
2018-08-18T10:44:37.791Z,0.90
2018-08-18T10:47:11.975Z,1.10
2018-08-18T10:49:51.743Z,1.07
2018-08-18T10:52:32.613Z,1.00
2018-08-18T10:55:02.652Z,1.00
2018-08-18T10:57:42.993Z,0.80
2018-08-18T11:00:13.407Z,1.07
2018-08-18T11:02:44.863Z,1.20
2018-08-18T11:05:13.779Z,0.97
2018-08-18T11:07:42.851Z,0.93
2018-08-18T11:10:11.455Z,1.23
2018-08-18T11:12:41.212Z,1.00
2018-08-18T11:15:13.313Z,0.83
2018-08-18T11:17:41.870Z,0.90
2018-08-18T11:20:24.215Z,1.10
2018-08-18T11:22:58.567Z,0.93
2018-08-18T11:25:29.444Z,0.83
2018-08-18T11:27:58.453Z,1.30
2018-08-18T11:30:26.915Z,1.03
2018-08-18T11:32:56.423Z,0.90
2018-08-18T11:35:24.927Z,1.30
2018-08-18T11:38:13.166Z,0.93
2018-08-18T11:40:42.097Z,1.00
2018-08-18T11:43:12.719Z,1.10
2018-08-18T11:45:41.969Z,0.90
2018-08-18T11:48:29.095Z,1.30
2018-08-18T11:50:57.770Z,0.90
2018-08-18T11:53:26.158Z,1.10
2018-08-18T11:55:54.523Z,1.03
2018-08-18T11:58:24.898Z,1.10
2018-08-18T12:00:55.609Z,1.17
2018-08-18T12:03:26.246Z,1.30
2018-08-18T12:05:56.555Z,1.10
2018-08-18T12:08:26.201Z,1.40
2018-08-18T12:10:56.243Z,1.70
2018-08-18T12:13:30.753Z,1.00
2018-08-18T12:16:04.805Z,1.40
2018-08-18T12:18:33.736Z,1.03
2018-08-18T12:21:03.311Z,0.83
2018-08-18T12:23:32.538Z,1.10
2018-08-18T12:26:06.134Z,0.87
2018-08-18T12:28:39.885Z,1.10
2018-08-18T12:31:10.379Z,1.27
2018-08-18T12:33:38.763Z,1.30
2018-08-18T12:36:07.231Z,0.87
2018-08-18T12:38:35.895Z,1.10
2018-08-18T12:41:05.214Z,0.70
2018-08-18T12:43:37.005Z,1.40
2018-08-18T12:46:07.362Z,1.13
2018-08-18T12:48:36.878Z,1.00
2018-08-18T12:51:05.803Z,1.63
2018-08-18T12:53:39.543Z,0.90
2018-08-18T12:56:08.296Z,1.00
2018-08-18T12:58:36.761Z,1.17
2018-08-18T13:01:05.121Z,1.57
2018-08-18T13:03:33.504Z,1.23
2018-08-18T13:06:01.897Z,1.60
2018-08-18T13:08:30.274Z,1.47
2018-08-18T13:10:58.665Z,2.00
2018-08-18T13:13:27.043Z,1.43
2018-08-18T13:15:56.349Z,1.50
2018-08-18T13:18:25.022Z,1.23
2018-08-18T13:20:56.171Z,1.47
2018-08-18T13:23:26.806Z,1.20
2018-08-18T13:25:55.249Z,1.43
2018-08-18T13:28:23.865Z,1.40
2018-08-18T13:30:52.270Z,1.50
2018-08-18T13:33:20.736Z,1.13
2018-08-18T13:35:50.375Z,1.20
2018-08-18T13:38:28.535Z,1.47
2018-08-18T13:40:57.142Z,1.20
2018-08-18T13:43:39.839Z,1.33
2018-08-18T13:46:09.898Z,0.90
2018-08-18T13:48:38.278Z,1.23
2018-08-18T13:51:08.183Z,1.37
2018-08-18T13:53:41.939Z,1.30
2018-08-18T13:56:10.341Z,1.20
2018-08-18T13:58:38.743Z,1.27
2018-08-18T14:01:24.831Z,1.00
2018-08-18T14:03:53.326Z,1.33
2018-08-18T14:06:21.722Z,1.00
2018-08-18T14:08:58.656Z,1.37
2018-08-18T14:11:27.258Z,1.10
2018-08-18T14:13:55.648Z,1.37
2018-08-18T14:16:24.087Z,1.67
2018-08-18T14:18:52.461Z,1.23
2018-08-18T14:21:20.854Z,0.90
2018-08-18T14:23:49.221Z,1.70
2018-08-18T14:26:17.610Z,1.17
2018-08-18T14:28:45.982Z,1.23
2018-08-18T14:31:14.448Z,1.60
2018-08-18T14:33:42.839Z,1.50
2018-08-18T14:36:12.138Z,1.53
2018-08-18T14:38:42.021Z,1.43
2018-08-18T14:41:10.440Z,1.40
2018-08-18T14:43:40.079Z,1.00
2018-08-18T14:46:10.434Z,1.40
2018-08-18T14:48:39.087Z,1.10
2018-08-18T14:51:07.749Z,1.40
2018-08-18T14:53:39.902Z,1.53
2018-08-18T14:56:08.438Z,1.03
2018-08-18T14:58:37.086Z,1.33
2018-08-18T15:01:11.222Z,1.70
2018-08-18T15:03:40.215Z,1.40
2018-08-18T15:06:08.869Z,1.60
2018-08-18T15:08:38.475Z,1.23
2018-08-18T15:11:06.899Z,1.33
2018-08-18T15:13:35.304Z,1.70
2018-08-18T15:16:04.052Z,1.53
2018-08-18T15:18:32.640Z,1.37
2018-08-18T15:21:01.069Z,1.73
2018-08-18T15:23:29.455Z,1.57
2018-08-18T15:25:57.859Z,1.13
2018-08-18T15:28:28.242Z,0.90
2018-08-18T15:30:56.787Z,1.73
2018-08-18T15:33:26.502Z,1.57
2018-08-18T15:35:54.887Z,1.70
2018-08-18T15:38:40.979Z,1.60
2018-08-18T15:41:10.008Z,1.40
2018-08-18T15:43:38.426Z,1.80
2018-08-18T15:46:06.811Z,1.60
2018-08-18T15:48:36.238Z,2.23
2018-08-18T15:51:04.645Z,1.63
2018-08-18T15:54:01.156Z,1.63
2018-08-18T15:56:30.735Z,1.70
2018-08-18T15:59:00.062Z,1.80
2018-08-18T16:01:30.754Z,1.93
2018-08-18T16:04:01.015Z,1.57
2018-08-18T16:06:29.394Z,2.20
2018-08-18T16:08:57.798Z,2.17
2018-08-18T16:11:26.211Z,1.97
2018-08-18T16:13:54.783Z,1.67
2018-08-18T16:16:23.135Z,1.90
2018-08-18T16:19:14.977Z,1.70
2018-08-18T16:21:43.348Z,1.40
2018-08-18T16:24:21.920Z,2.07
2018-08-18T16:26:50.319Z,1.80
2018-08-18T16:29:18.718Z,1.77
2018-08-18T16:31:47.127Z,1.90
2018-08-18T16:34:15.558Z,1.60
2018-08-18T16:36:47.019Z,1.70
2018-08-18T16:39:15.427Z,1.70
2018-08-18T16:41:43.793Z,2.33
2018-08-18T16:44:12.197Z,2.10
2018-08-18T16:46:40.574Z,1.90
2018-08-18T16:49:08.969Z,2.10
2018-08-18T16:51:37.530Z,2.10
2018-08-18T16:54:21.812Z,2.30
2018-08-18T16:56:50.198Z,2.83
2018-08-18T16:59:18.605Z,3.30
2018-08-18T17:01:46.978Z,3.20
2018-08-18T17:04:24.690Z,3.87
2018-08-18T17:06:53.062Z,2.63
2018-08-18T17:09:32.903Z,2.37
2018-08-18T17:12:13.031Z,2.30
2018-08-18T17:14:41.543Z,2.53
2018-08-18T17:17:10.723Z,3.53
2018-08-18T17:19:39.833Z,5.80
2018-08-18T17:22:09.374Z,5.57
2018-08-18T17:24:37.770Z,5.20
2018-08-18T17:27:06.431Z,4.00
2018-08-18T17:29:37.352Z,4.27
2018-08-18T17:32:06.114Z,2.63
2018-08-18T17:34:34.714Z,2.73
2018-08-18T17:37:04.252Z,2.50
2018-08-18T17:39:32.646Z,2.80
2018-08-18T17:42:01.033Z,3.23
2018-08-18T17:44:30.126Z,3.23
2018-08-18T17:49:42.248Z,3.57
2018-08-18T17:52:10.635Z,3.17
2018-08-18T17:54:39.267Z,4.37
2018-08-18T17:57:08.443Z,4.00
2018-08-18T17:59:37.568Z,4.70
2018-08-18T18:02:11.854Z,3.70
2018-08-18T18:04:40.283Z,3.83
2018-08-18T18:07:09.647Z,2.87
2018-08-18T18:09:38.050Z,3.30
2018-08-18T18:12:22.914Z,3.30
2018-08-18T18:14:51.363Z,2.30
2018-08-18T18:17:22.000Z,2.53
2018-08-18T18:19:50.706Z,2.33
2018-08-18T18:22:19.164Z,2.60
2018-08-18T18:24:49.279Z,2.47
2018-08-18T18:27:18.015Z,2.77
2018-08-18T18:29:46.459Z,2.33
2018-08-18T18:32:14.880Z,2.20
2018-08-18T18:34:43.281Z,2.43
2018-08-18T18:37:11.654Z,2.20
2018-08-18T18:39:50.792Z,2.23
2018-08-18T18:42:19.171Z,2.40
2018-08-18T18:44:47.569Z,2.30
2018-08-18T18:47:15.940Z,2.10
2018-08-18T18:49:44.325Z,3.73
2018-08-18T18:52:13.367Z,2.77
2018-08-18T18:54:41.763Z,2.53
2018-08-18T18:57:10.138Z,2.47
2018-08-18T18:59:42.791Z,2.70
2018-08-18T19:02:11.394Z,3.03
2018-08-18T19:04:40.488Z,3.30
2018-08-18T19:07:09.056Z,3.00
2018-08-18T19:09:37.429Z,4.07
2018-08-18T19:12:05.817Z,4.20
2018-08-18T19:14:34.178Z,3.90
2018-08-18T19:17:02.604Z,3.80
2018-08-18T19:19:30.977Z,4.53
2018-08-18T19:21:59.375Z,3.40
2018-08-18T19:24:27.755Z,4.00
2018-08-18T19:26:58.860Z,4.03
2018-08-18T19:29:28.122Z,6.00
2018-08-18T19:31:57.758Z,5.20
2018-08-18T19:34:26.153Z,5.17
2018-08-18T19:37:05.559Z,4.57
2018-08-18T19:39:35.054Z,5.37
2018-08-18T19:42:09.761Z,6.40
2018-08-18T19:44:45.215Z,6.10
2018-08-18T19:47:16.058Z,5.30
2018-08-18T19:49:45.678Z,3.67
2018-08-18T19:52:18.180Z,4.23
2018-08-18T19:54:47.879Z,4.90
2018-08-18T19:57:26.974Z,6.43
2018-08-18T19:59:59.662Z,8.23
2018-08-18T20:02:37.609Z,15.70
2018-08-18T20:05:06.015Z,20.53
2018-08-18T20:07:34.426Z,18.10
2018-08-18T20:10:02.802Z,13.37
2018-08-18T20:12:31.198Z,10.70
2018-08-18T20:14:59.660Z,10.43
2018-08-18T20:17:28.107Z,11.40
2018-08-18T20:19:56.547Z,10.13
2018-08-18T20:22:25.188Z,7.43
2018-08-18T20:24:53.698Z,5.70
2018-08-18T20:27:22.298Z,4.57
2018-08-18T20:29:50.901Z,3.00
2018-08-18T20:32:19.353Z,4.40
2018-08-18T20:34:47.771Z,3.40
2018-08-18T20:37:16.214Z,3.20
2018-08-18T20:39:44.684Z,4.80
2018-08-18T20:42:13.138Z,3.90
2018-08-18T20:44:41.563Z,6.57
2018-08-18T20:47:10.013Z,3.80
2018-08-18T20:49:38.434Z,4.53
2018-08-18T20:52:06.898Z,5.13
2018-08-18T20:54:35.317Z,4.53
2018-08-18T20:57:03.829Z,3.97
2018-08-18T20:59:32.268Z,4.40
2018-08-18T21:02:00.715Z,4.37
2018-08-18T21:04:29.193Z,4.90
2018-08-18T21:06:57.647Z,5.10
2018-08-18T21:09:28.606Z,5.67
2018-08-18T21:11:57.003Z,5.43
2018-08-18T21:14:28.493Z,5.83
2018-08-18T21:16:57.179Z,6.03
2018-08-18T21:19:26.672Z,7.17
2018-08-18T21:21:56.007Z,7.17
2018-08-18T21:24:24.359Z,9.43
2018-08-18T21:26:52.758Z,8.90
2018-08-18T21:29:23.768Z,9.50
2018-08-18T21:31:52.167Z,11.83
2018-08-18T21:34:20.584Z,12.33
2018-08-18T21:36:49.040Z,13.83
2018-08-18T21:39:17.498Z,15.97
2018-08-18T21:41:47.129Z,13.80
2018-08-18T21:44:16.083Z,17.67
2018-08-18T21:46:44.745Z,13.70
2018-08-18T21:49:13.563Z,15.23
2018-08-18T21:51:42.021Z,13.77
2018-08-18T21:54:10.484Z,15.57
2018-08-18T21:56:40.421Z,16.03
2018-08-18T21:59:10.283Z,17.20
2018-08-18T22:01:38.743Z,18.77
2018-08-18T22:04:07.971Z,17.93
2018-08-18T22:06:36.412Z,16.43
2018-08-18T22:09:19.264Z,19.47
2018-08-18T22:11:47.926Z,18.30
2018-08-18T22:14:17.435Z,21.53
2018-08-18T22:16:51.280Z,20.47
2018-08-18T22:19:20.487Z,19.83
2018-08-18T22:21:48.867Z,19.10
2018-08-18T22:24:17.319Z,21.40
2018-08-18T22:26:45.701Z,20.80
2018-08-18T22:29:14.155Z,17.50
2018-08-18T22:31:42.562Z,16.77
2018-08-18T22:34:10.968Z,16.10
2018-08-18T22:36:39.353Z,15.77
2018-08-18T22:39:09.369Z,13.40
2018-08-18T22:41:38.406Z,13.50
2018-08-18T22:44:06.820Z,10.87
2018-08-18T22:46:35.223Z,12.90
2018-08-18T22:49:03.642Z,10.40
2018-08-18T22:51:32.041Z,8.30
2018-08-18T22:54:00.447Z,9.43
2018-08-18T22:56:34.274Z,8.80
2018-08-18T22:59:03.920Z,7.70
2018-08-18T23:01:33.094Z,8.40
2018-08-18T23:04:02.424Z,8.60
2018-08-18T23:06:33.807Z,9.60
2018-08-18T23:09:02.197Z,9.60
2018-08-18T23:11:30.586Z,10.50
2018-08-18T23:13:58.993Z,10.20
2018-08-18T23:16:27.385Z,10.27
2018-08-18T23:18:56.139Z,10.20
2018-08-18T23:21:30.575Z,9.90
2018-08-18T23:24:00.616Z,10.80
2018-08-18T23:26:29.180Z,9.90
2018-08-18T23:28:57.752Z,11.30
2018-08-18T23:31:26.135Z,12.43
2018-08-18T23:33:54.538Z,13.00
2018-08-18T23:36:22.928Z,12.93
2018-08-18T23:38:56.802Z,12.00
2018-08-18T23:41:25.170Z,9.97
2018-08-18T23:43:53.575Z,11.17
2018-08-18T23:46:21.958Z,9.57
2018-08-18T23:48:50.349Z,8.20
2018-08-18T23:51:23.147Z,8.50
2018-08-18T23:53:51.537Z,7.43
2018-08-18T23:56:19.914Z,8.40
2018-08-18T23:58:48.315Z,8.60
